Wilmington, New York
Current Conditions -  °F | °C
As of 10:51 AM on Wednesday 28 Jan 2015 (Local Time) from KSLK Reporting Station
Clear Clear  
Wind Chill: -18°   Ceiling: Unl
Heat Index: -13°   Visibility: 10mi
Dew Point: -22°   Wind: 5mph
Humidity: 50%   Direction: NA
Pressure: 30.04"   Gusts: NA
Location:  44.39°N, 73.82°W
Report Text: KSLK 281551Z AUTO VRB04KT 10SM CLR M13/M22 A3004 RMK AO2 SLP210 T11331217
Loading
Personal Weather Stations






























Interactive Weather Map New forecast layout! Learn more

10-Day Weather Forecast

Advertisements
Track Severe Weather on mobile